createdAt,value
2019-05-12T00:00:28.756Z,1019.76
2019-05-12T00:01:28.682Z,1019.83
2019-05-12T00:02:28.683Z,1019.82
2019-05-12T00:03:27.664Z,1019.86
2019-05-12T00:04:28.082Z,1019.85
2019-05-12T00:05:27.957Z,1019.84
2019-05-12T00:06:28.462Z,1019.87
2019-05-12T00:07:28.581Z,1019.91
2019-05-12T00:08:27.729Z,1019.91
2019-05-12T00:09:28.271Z,1019.88
2019-05-12T00:10:28.314Z,1019.89
2019-05-12T00:11:28.731Z,1019.89
2019-05-12T00:12:27.786Z,1019.94
2019-05-12T00:13:27.961Z,1019.92
2019-05-12T00:14:28.243Z,1019.94
2019-05-12T00:15:28.050Z,1020.00
2019-05-12T00:16:28.343Z,1020.07
2019-05-12T00:17:28.425Z,1020.06
2019-05-12T00:18:28.490Z,1020.08
2019-05-12T00:19:28.577Z,1020.10
2019-05-12T00:20:28.340Z,1020.09
2019-05-12T00:21:28.302Z,1020.08
2019-05-12T00:22:28.653Z,1020.06
2019-05-12T00:23:28.673Z,1020.06
2019-05-12T00:24:28.025Z,1020.09
2019-05-12T00:25:28.280Z,1020.09
2019-05-12T00:26:28.255Z,1020.15
2019-05-12T00:27:28.452Z,1020.13
2019-05-12T00:28:28.428Z,1020.15
2019-05-12T00:29:28.662Z,1020.20
2019-05-12T00:30:27.725Z,1020.21
2019-05-12T00:31:28.075Z,1020.20
2019-05-12T00:32:28.241Z,1020.21
2019-05-12T00:33:28.307Z,1020.25
2019-05-12T00:34:28.700Z,1020.23
2019-05-12T00:35:28.499Z,1020.22
2019-05-12T00:36:29.085Z,1020.27
2019-05-12T00:37:28.755Z,1020.27
2019-05-12T00:38:27.824Z,1020.26
2019-05-12T00:39:27.893Z,1020.21
2019-05-12T00:40:28.064Z,1020.26
2019-05-12T00:41:28.276Z,1020.23
2019-05-12T00:42:28.619Z,1020.27
2019-05-12T00:43:28.107Z,1020.23
2019-05-12T00:44:28.426Z,1020.27
2019-05-12T00:45:28.914Z,1020.29
2019-05-12T00:46:27.840Z,1020.28
2019-05-12T00:47:28.048Z,1020.31
2019-05-12T00:48:28.393Z,1020.38
2019-05-12T00:49:28.966Z,1020.40
2019-05-12T00:50:28.640Z,1020.40
2019-05-12T00:51:28.623Z,1020.42
2019-05-12T00:52:28.176Z,1020.45
2019-05-12T00:53:37.109Z,1020.49
2019-05-12T00:54:28.268Z,1020.54
2019-05-12T00:55:28.608Z,1020.60
2019-05-12T00:56:28.467Z,1020.64
2019-05-12T00:57:28.599Z,1020.68
2019-05-12T00:58:27.836Z,1020.70
2019-05-12T00:59:27.973Z,1020.71
2019-05-12T01:00:29.274Z,1020.73
2019-05-12T01:01:28.003Z,1020.75
2019-05-12T01:02:28.559Z,1020.72
2019-05-12T01:03:27.916Z,1020.73
2019-05-12T01:04:26.246Z,1020.73
2019-05-12T01:05:26.243Z,1020.74
2019-05-12T01:06:28.308Z,1020.75
2019-05-12T01:07:27.752Z,1020.76
2019-05-12T01:08:28.062Z,1020.79
2019-05-12T01:09:28.201Z,1020.82
2019-05-12T01:10:28.281Z,1020.82
2019-05-12T01:11:28.335Z,1020.84
2019-05-12T01:12:28.495Z,1020.83
2019-05-12T01:13:27.980Z,1020.83
2019-05-12T01:14:27.884Z,1020.87
2019-05-12T01:15:28.367Z,1020.90
2019-05-12T01:16:26.150Z,1020.87
2019-05-12T01:17:28.170Z,1020.90
2019-05-12T01:18:28.060Z,1020.90
2019-05-12T01:19:26.124Z,1020.92
2019-05-12T01:20:28.287Z,1020.95
2019-05-12T01:21:28.567Z,1020.91
2019-05-12T01:22:27.727Z,1020.94
2019-05-12T01:23:28.042Z,1020.93
2019-05-12T01:24:28.199Z,1020.93
2019-05-12T01:25:26.066Z,1021.01
2019-05-12T01:26:28.301Z,1021.09
2019-05-12T01:27:28.372Z,1021.10
2019-05-12T01:28:27.879Z,1021.11
2019-05-12T01:29:28.000Z,1021.18
2019-05-12T01:30:28.176Z,1021.19
2019-05-12T01:31:28.474Z,1021.20
2019-05-12T01:32:25.993Z,1021.19
2019-05-12T01:33:27.723Z,1021.25
2019-05-12T01:34:27.780Z,1021.24
2019-05-12T01:35:28.243Z,1021.24
2019-05-12T01:36:25.969Z,1021.23
2019-05-12T01:37:27.987Z,1021.27
2019-05-12T01:38:25.947Z,1021.29
2019-05-12T01:39:27.741Z,1021.33
2019-05-12T01:40:28.242Z,1021.33
2019-05-12T01:41:28.465Z,1021.36
2019-05-12T01:42:25.917Z,1021.32
2019-05-12T01:43:27.735Z,1021.34
2019-05-12T01:44:25.893Z,1021.33
2019-05-12T01:45:28.450Z,1021.36
2019-05-12T01:46:25.874Z,1021.35
2019-05-12T01:47:25.869Z,1021.37
2019-05-12T01:48:28.481Z,1021.42
2019-05-12T01:49:25.847Z,1021.41
2019-05-12T01:50:28.061Z,1021.39
2019-05-12T01:51:28.309Z,1021.42
2019-05-12T01:52:28.408Z,1021.41
2019-05-12T01:53:25.816Z,1021.42
2019-05-12T01:54:27.822Z,1021.46
2019-05-12T01:55:27.843Z,1021.44
2019-05-12T01:56:25.782Z,1021.45
2019-05-12T01:57:25.777Z,1021.51
2019-05-12T01:58:27.732Z,1021.57
2019-05-12T01:59:25.759Z,1021.58
2019-05-12T02:00:28.228Z,1021.57
2019-05-12T02:01:27.642Z,1021.60
2019-05-12T02:02:28.401Z,1021.60
2019-05-12T02:03:25.718Z,1021.65
2019-05-12T02:04:25.711Z,1021.63
2019-05-12T02:05:27.840Z,1021.68
2019-05-12T02:06:27.915Z,1021.75
2019-05-12T02:07:27.913Z,1021.75
2019-05-12T02:08:27.759Z,1021.74
2019-05-12T02:09:27.896Z,1021.74
2019-05-12T02:10:25.677Z,1021.74
2019-05-12T02:11:25.654Z,1021.75
2019-05-12T02:12:25.641Z,1021.80
2019-05-12T02:13:27.715Z,1021.76
2019-05-12T02:14:27.545Z,1021.80
2019-05-12T02:15:27.682Z,1021.79
2019-05-12T02:16:28.051Z,1021.80
2019-05-12T02:17:25.599Z,1021.80
2019-05-12T02:18:25.583Z,1021.78
2019-05-12T02:19:25.580Z,1021.82
2019-05-12T02:20:25.569Z,1021.78
2019-05-12T02:21:27.804Z,1021.82
2019-05-12T02:22:27.430Z,1021.85
2019-05-12T02:23:25.545Z,1021.87
2019-05-12T02:24:29.778Z,1021.90
2019-05-12T02:25:25.528Z,1021.95
2019-05-12T02:26:25.517Z,1021.98
2019-05-12T02:27:25.505Z,1022.00
2019-05-12T02:28:25.496Z,1022.05
2019-05-12T02:29:25.492Z,1022.06
2019-05-12T02:30:25.484Z,1022.05
2019-05-12T02:31:29.146Z,1022.04
2019-05-12T02:32:35.610Z,1022.07
2019-05-12T02:33:25.457Z,1022.07
2019-05-12T02:34:25.735Z,1022.06
2019-05-12T02:35:25.437Z,1022.07
2019-05-12T02:36:26.058Z,1022.11
2019-05-12T02:37:26.205Z,1022.13
2019-05-12T02:38:25.412Z,1022.11
2019-05-12T02:39:25.399Z,1022.11
2019-05-12T02:40:25.632Z,1022.11
2019-05-12T02:41:26.186Z,1022.13
2019-05-12T02:42:25.375Z,1022.17
2019-05-12T02:43:25.368Z,1022.22
2019-05-12T02:44:25.358Z,1022.22
2019-05-12T02:45:25.820Z,1022.29
2019-05-12T02:46:25.820Z,1022.29
2019-05-12T02:47:25.331Z,1022.30
2019-05-12T02:48:25.321Z,1022.34
2019-05-12T02:49:25.313Z,1022.37
2019-05-12T02:50:25.304Z,1022.36
2019-05-12T02:51:25.305Z,1022.36
2019-05-12T02:52:25.350Z,1022.34
2019-05-12T02:53:25.283Z,1022.36
2019-05-12T02:54:37.089Z,1022.35
2019-05-12T02:55:25.663Z,1022.38
2019-05-12T02:56:25.850Z,1022.41
2019-05-12T02:57:25.667Z,1022.40
2019-05-12T02:58:25.548Z,1022.41
2019-05-12T02:59:25.565Z,1022.43
2019-05-12T03:00:25.215Z,1022.45
2019-05-12T03:01:25.207Z,1022.46
2019-05-12T03:02:25.198Z,1022.47
2019-05-12T03:03:25.371Z,1022.47
2019-05-12T03:04:25.186Z,1022.44
2019-05-12T03:05:25.175Z,1022.45
2019-05-12T03:06:25.387Z,1022.49
2019-05-12T03:07:25.577Z,1022.48
2019-05-12T03:08:25.832Z,1022.52
2019-05-12T03:09:25.135Z,1022.53
2019-05-12T03:10:25.387Z,1022.56
2019-05-12T03:11:25.115Z,1022.56
2019-05-12T03:12:25.724Z,1022.55
2019-05-12T03:13:25.511Z,1022.61
2019-05-12T03:14:25.451Z,1022.58
2019-05-12T03:15:25.313Z,1022.59
2019-05-12T03:16:25.766Z,1022.58
2019-05-12T03:17:25.458Z,1022.54
2019-05-12T03:18:25.469Z,1022.52
2019-05-12T03:19:25.391Z,1022.53
2019-05-12T03:20:25.033Z,1022.52
2019-05-12T03:21:25.024Z,1022.56
2019-05-12T03:22:25.424Z,1022.56
2019-05-12T03:23:25.120Z,1022.57
2019-05-12T03:24:25.288Z,1022.59
2019-05-12T03:25:29.684Z,1022.62
2019-05-12T03:26:25.032Z,1022.60
2019-05-12T03:27:25.775Z,1022.60
2019-05-12T03:28:25.676Z,1022.59
2019-05-12T03:29:25.292Z,1022.63
2019-05-12T03:30:28.934Z,1022.61
2019-05-12T03:31:31.132Z,1022.66
2019-05-12T03:32:27.802Z,1022.65
2019-05-12T03:33:33.122Z,1022.66
2019-05-12T03:34:29.368Z,1022.71
2019-05-12T03:35:32.782Z,1022.72
2019-05-12T03:36:32.211Z,1022.76
2019-05-12T03:37:30.643Z,1022.77
2019-05-12T03:38:27.728Z,1022.82
2019-05-12T03:39:25.200Z,1022.80
2019-05-12T03:40:25.137Z,1022.79
2019-05-12T03:41:25.220Z,1022.82
2019-05-12T03:42:25.345Z,1022.80
2019-05-12T03:43:24.815Z,1022.78
2019-05-12T03:44:25.317Z,1022.80
2019-05-12T03:45:25.238Z,1022.79
2019-05-12T03:46:25.093Z,1022.86
2019-05-12T03:47:25.305Z,1022.84
2019-05-12T03:48:25.391Z,1022.86
2019-05-12T03:49:24.769Z,1022.90
2019-05-12T03:50:24.783Z,1022.88
2019-05-12T03:51:25.253Z,1022.90
2019-05-12T03:52:24.734Z,1022.92
2019-05-12T03:53:25.062Z,1022.90
2019-05-12T03:54:24.754Z,1022.96
2019-05-12T03:55:35.301Z,1022.96
2019-05-12T03:56:25.949Z,1022.96
2019-05-12T03:57:25.460Z,1023.00
2019-05-12T03:58:25.533Z,1023.02
2019-05-12T03:59:25.583Z,1023.01
2019-05-12T04:00:25.003Z,1023.08
2019-05-12T04:01:25.460Z,1023.06
2019-05-12T04:02:25.183Z,1023.07
2019-05-12T04:03:24.877Z,1023.09
2019-05-12T04:04:24.645Z,1023.08
2019-05-12T04:05:24.671Z,1023.12
2019-05-12T04:06:24.909Z,1023.15
2019-05-12T04:07:24.594Z,1023.17
2019-05-12T04:08:24.826Z,1023.19
2019-05-12T04:09:24.775Z,1023.25
2019-05-12T04:10:24.908Z,1023.24
2019-05-12T04:11:25.148Z,1023.24
2019-05-12T04:12:25.415Z,1023.25
2019-05-12T04:13:26.486Z,1023.28
2019-05-12T04:14:25.366Z,1023.30
2019-05-12T04:15:25.532Z,1023.29
2019-05-12T04:16:24.966Z,1023.33
2019-05-12T04:17:24.595Z,1023.33
2019-05-12T04:18:24.802Z,1023.38
2019-05-12T04:19:25.025Z,1023.40
2019-05-12T04:20:25.418Z,1023.36
2019-05-12T04:21:24.683Z,1023.45
2019-05-12T04:22:25.021Z,1023.40
2019-05-12T04:23:24.834Z,1023.40
2019-05-12T04:24:25.035Z,1023.47
2019-05-12T04:25:25.155Z,1023.46
2019-05-12T04:26:25.326Z,1023.47
2019-05-12T04:27:25.299Z,1023.52
2019-05-12T04:28:24.688Z,1023.54
2019-05-12T04:29:25.123Z,1023.51
2019-05-12T04:30:25.173Z,1023.53
2019-05-12T04:31:25.091Z,1023.58
2019-05-12T04:32:25.147Z,1023.64
2019-05-12T04:33:25.717Z,1023.62
2019-05-12T04:34:25.208Z,1023.66
2019-05-12T04:35:25.342Z,1023.68
2019-05-12T04:36:24.958Z,1023.70
2019-05-12T04:37:25.074Z,1023.77
2019-05-12T04:38:24.965Z,1023.78
2019-05-12T04:39:25.299Z,1023.77
2019-05-12T04:40:24.878Z,1023.78
2019-05-12T04:41:26.046Z,1023.81
2019-05-12T04:42:25.152Z,1023.84
2019-05-12T04:43:25.384Z,1023.84
2019-05-12T04:44:25.069Z,1023.90
2019-05-12T04:45:25.458Z,1023.89
2019-05-12T04:46:25.228Z,1023.94
2019-05-12T04:47:25.292Z,1023.88
2019-05-12T04:48:25.799Z,1023.97
2019-05-12T04:49:25.153Z,1023.96
2019-05-12T04:50:24.701Z,1024.00
2019-05-12T04:51:26.032Z,1024.04
2019-05-12T04:52:24.938Z,1024.07
2019-05-12T04:53:25.139Z,1024.08
2019-05-12T04:54:25.085Z,1024.11
2019-05-12T04:55:25.568Z,1024.17
2019-05-12T04:56:24.969Z,1024.20
2019-05-12T04:57:25.430Z,1024.20
2019-05-12T04:58:25.492Z,1024.21
2019-05-12T04:59:25.429Z,1024.19
2019-05-12T05:00:25.736Z,1024.23
2019-05-12T05:01:25.300Z,1024.24
2019-05-12T05:02:25.265Z,1024.28
2019-05-12T05:03:24.838Z,1024.31
2019-05-12T05:04:24.599Z,1024.29
2019-05-12T05:05:24.843Z,1024.31
2019-05-12T05:06:25.397Z,1024.31
2019-05-12T05:07:24.499Z,1024.34
2019-05-12T05:08:24.518Z,1024.34
2019-05-12T05:09:24.657Z,1024.38
2019-05-12T05:10:24.946Z,1024.38
2019-05-12T05:11:24.995Z,1024.40
2019-05-12T05:12:24.089Z,1024.43
2019-05-12T05:13:24.517Z,1024.43
2019-05-12T05:14:24.751Z,1024.47
2019-05-12T05:15:24.945Z,1024.46
2019-05-12T05:16:24.836Z,1024.52
2019-05-12T05:17:24.579Z,1024.57
2019-05-12T05:18:24.015Z,1024.58
2019-05-12T05:19:24.480Z,1024.63
2019-05-12T05:20:24.093Z,1024.63
2019-05-12T05:21:24.147Z,1024.63
2019-05-12T05:22:24.307Z,1024.62
2019-05-12T05:23:24.259Z,1024.67
2019-05-12T05:24:23.916Z,1024.69
2019-05-12T05:25:23.916Z,1024.68
2019-05-12T05:26:27.976Z,1024.74
2019-05-12T05:27:24.703Z,1024.73
2019-05-12T05:28:23.878Z,1024.74
2019-05-12T05:29:24.129Z,1024.73
2019-05-12T05:30:24.371Z,1024.76
2019-05-12T05:31:24.427Z,1024.75
2019-05-12T05:32:23.855Z,1024.75
2019-05-12T05:33:24.011Z,1024.76
2019-05-12T05:34:23.834Z,1024.78
2019-05-12T05:35:23.958Z,1024.78
2019-05-12T05:36:25.026Z,1024.79
2019-05-12T05:37:24.037Z,1024.83
2019-05-12T05:38:23.824Z,1024.80
2019-05-12T05:39:24.374Z,1024.84
2019-05-12T05:40:25.983Z,1024.86
2019-05-12T05:41:24.124Z,1024.84
2019-05-12T05:42:28.403Z,1024.89
2019-05-12T05:43:24.291Z,1024.95
2019-05-12T05:44:24.095Z,1024.95
2019-05-12T05:45:26.411Z,1024.96
2019-05-12T05:46:24.165Z,1024.95
2019-05-12T05:47:25.672Z,1025.02
2019-05-12T05:48:24.175Z,1024.99
2019-05-12T05:49:23.885Z,1025.00
2019-05-12T05:50:29.202Z,1025.02
2019-05-12T05:51:23.875Z,1025.05
2019-05-12T05:52:26.573Z,1025.04
2019-05-12T05:53:24.315Z,1025.07
2019-05-12T05:54:31.346Z,1025.12
2019-05-12T05:55:23.676Z,1025.12
2019-05-12T05:56:38.456Z,1025.15
2019-05-12T05:57:25.805Z,1025.18
2019-05-12T05:58:26.183Z,1025.25
2019-05-12T05:59:31.254Z,1025.21
2019-05-12T06:00:26.203Z,1025.25
2019-05-12T06:01:24.481Z,1025.26
2019-05-12T06:02:31.964Z,1025.23
2019-05-12T06:03:27.730Z,1025.29
2019-05-12T06:04:23.921Z,1025.32
2019-05-12T06:05:28.749Z,1025.33
2019-05-12T06:06:23.800Z,1025.34
2019-05-12T06:07:34.384Z,1025.36
2019-05-12T06:08:23.861Z,1025.41
2019-05-12T06:09:23.668Z,1025.39
2019-05-12T06:10:34.817Z,1025.42
2019-05-12T06:11:28.150Z,1025.41
2019-05-12T06:12:23.988Z,1025.37
2019-05-12T06:13:29.966Z,1025.37
2019-05-12T06:14:23.859Z,1025.33
2019-05-12T06:15:23.654Z,1025.36
2019-05-12T06:16:25.137Z,1025.37
2019-05-12T06:17:23.674Z,1025.41
2019-05-12T06:18:24.040Z,1025.36
2019-05-12T06:19:26.144Z,1025.39
2019-05-12T06:20:23.827Z,1025.49
2019-05-12T06:21:24.153Z,1025.40
2019-05-12T06:22:23.689Z,1025.42
2019-05-12T06:23:24.064Z,1025.39
2019-05-12T06:24:23.921Z,1025.44
2019-05-12T06:25:26.589Z,1025.40
2019-05-12T06:26:30.842Z,1025.44
2019-05-12T06:27:24.324Z,1025.42
2019-05-12T06:28:23.590Z,1025.43
2019-05-12T06:29:25.115Z,1025.42
2019-05-12T06:30:24.269Z,1025.44
2019-05-12T06:31:25.107Z,1025.49
2019-05-12T06:32:25.084Z,1025.50
2019-05-12T06:33:31.328Z,1025.50
2019-05-12T06:34:23.813Z,1025.52
2019-05-12T06:35:24.050Z,1025.50
2019-05-12T06:36:27.099Z,1025.51
2019-05-12T06:37:23.711Z,1025.54
2019-05-12T06:38:23.696Z,1025.56
2019-05-12T06:39:23.632Z,1025.51
2019-05-12T06:40:24.329Z,1025.56
2019-05-12T06:41:25.752Z,1025.58
2019-05-12T06:42:24.218Z,1025.59
2019-05-12T06:43:24.353Z,1025.59
2019-05-12T06:44:24.035Z,1025.64
2019-05-12T06:45:23.536Z,1025.66
2019-05-12T06:46:25.850Z,1025.67
2019-05-12T06:47:24.085Z,1025.69
2019-05-12T06:48:28.388Z,1025.75
2019-05-12T06:49:24.601Z,1025.75
2019-05-12T06:50:23.798Z,1025.78
2019-05-12T06:51:25.845Z,1025.82
2019-05-12T06:52:23.770Z,1025.84
2019-05-12T06:53:26.547Z,1025.84
2019-05-12T06:54:24.745Z,1025.83
2019-05-12T06:55:23.817Z,1025.87
2019-05-12T06:56:23.655Z,1025.95
2019-05-12T06:57:28.403Z,1025.94
2019-05-12T06:58:27.586Z,1025.93
2019-05-12T06:59:23.819Z,1025.94
2019-05-12T07:00:30.780Z,1025.92
2019-05-12T07:01:24.237Z,1025.92
2019-05-12T07:02:24.512Z,1025.96
2019-05-12T07:03:28.412Z,1026.00
2019-05-12T07:04:24.033Z,1025.98
2019-05-12T07:05:23.366Z,1025.96
2019-05-12T07:06:24.704Z,1026.00
2019-05-12T07:07:27.084Z,1026.00
2019-05-12T07:08:27.420Z,1026.01
2019-05-12T07:09:27.991Z,1025.99
2019-05-12T07:10:38.487Z,1025.98
2019-05-12T07:11:24.269Z,1026.02
2019-05-12T07:12:24.953Z,1026.07
2019-05-12T07:13:29.232Z,1026.08
2019-05-12T07:14:27.092Z,1026.10
2019-05-12T07:15:23.422Z,1026.12
2019-05-12T07:16:29.828Z,1026.09
2019-05-12T07:17:23.873Z,1026.10
2019-05-12T07:18:31.718Z,1026.13
2019-05-12T07:19:25.518Z,1026.14
2019-05-12T07:20:24.033Z,1026.14
2019-05-12T07:21:26.519Z,1026.17
2019-05-12T07:22:25.758Z,1026.14
2019-05-12T07:23:25.970Z,1026.16
2019-05-12T07:24:23.850Z,1026.16
2019-05-12T07:25:30.981Z,1026.17
2019-05-12T07:26:23.581Z,1026.18
2019-05-12T07:27:35.654Z,1026.21
2019-05-12T07:28:23.672Z,1026.17
2019-05-12T07:29:23.904Z,1026.23
2019-05-12T07:30:24.027Z,1026.31
2019-05-12T07:31:23.396Z,1026.24
2019-05-12T07:32:24.654Z,1026.18
2019-05-12T07:33:23.380Z,1026.26
2019-05-12T07:34:24.055Z,1026.23
2019-05-12T07:35:23.987Z,1026.27
2019-05-12T07:36:24.255Z,1026.23
2019-05-12T07:37:23.665Z,1026.24
2019-05-12T07:38:25.681Z,1026.23
2019-05-12T07:39:24.151Z,1026.25
2019-05-12T07:40:25.631Z,1026.30
2019-05-12T07:41:23.731Z,1026.32
2019-05-12T07:42:31.638Z,1026.31
2019-05-12T07:43:24.262Z,1026.33
2019-05-12T07:44:25.148Z,1026.32
2019-05-12T07:45:25.168Z,1026.29
2019-05-12T07:46:25.024Z,1026.37
2019-05-12T07:47:27.340Z,1026.35
2019-05-12T07:48:23.336Z,1026.41
2019-05-12T07:49:34.205Z,1026.30
2019-05-12T07:50:27.059Z,1026.39
2019-05-12T07:51:24.164Z,1026.40
2019-05-12T07:52:24.230Z,1026.42
2019-05-12T07:53:23.429Z,1026.30
2019-05-12T07:54:23.615Z,1026.29
2019-05-12T07:55:23.701Z,1026.28
2019-05-12T07:56:26.003Z,1026.23
2019-05-12T07:57:24.223Z,1026.28
2019-05-12T07:58:24.003Z,1026.33
2019-05-12T07:59:28.279Z,1026.42
2019-05-12T08:00:25.637Z,1026.33
2019-05-12T08:01:23.606Z,1026.27
2019-05-12T08:02:31.440Z,1026.26
2019-05-12T08:03:24.323Z,1026.32
2019-05-12T08:04:23.943Z,1026.30
2019-05-12T08:05:24.025Z,1026.32
2019-05-12T08:06:24.441Z,1026.32
2019-05-12T08:07:28.297Z,1026.35
2019-05-12T08:08:23.634Z,1026.31
2019-05-12T08:09:24.117Z,1026.40
2019-05-12T08:10:23.491Z,1026.34
2019-05-12T08:11:23.602Z,1026.32
2019-05-12T08:12:23.835Z,1026.31
2019-05-12T08:13:23.816Z,1026.36
2019-05-12T08:14:28.525Z,1026.29
2019-05-12T08:15:24.705Z,1026.37
2019-05-12T08:16:25.710Z,1026.37
2019-05-12T08:17:24.597Z,1026.37
2019-05-12T08:18:24.662Z,1026.41
2019-05-12T08:19:25.710Z,1026.37
2019-05-12T08:20:23.894Z,1026.39
2019-05-12T08:21:24.286Z,1026.43
2019-05-12T08:22:25.103Z,1026.42
2019-05-12T08:23:23.467Z,1026.47
2019-05-12T08:24:23.663Z,1026.48
2019-05-12T08:25:27.408Z,1026.46
2019-05-12T08:26:23.885Z,1026.36
2019-05-12T08:27:23.399Z,1026.39
2019-05-12T08:28:34.242Z,1026.36
2019-05-12T08:29:24.324Z,1026.30
2019-05-12T08:30:24.018Z,1026.37
2019-05-12T08:31:32.052Z,1026.34
2019-05-12T08:32:23.453Z,1026.45
2019-05-12T08:33:23.847Z,1026.44
2019-05-12T08:34:23.745Z,1026.51
2019-05-12T08:35:29.445Z,1026.53
2019-05-12T08:36:23.772Z,1026.50
2019-05-12T08:37:24.367Z,1026.52
2019-05-12T08:38:24.893Z,1026.45
2019-05-12T08:39:25.792Z,1026.54
2019-05-12T08:40:24.785Z,1026.48
2019-05-12T08:41:23.481Z,1026.49
2019-05-12T08:42:23.782Z,1026.56
2019-05-12T08:43:24.040Z,1026.53
2019-05-12T08:44:24.874Z,1026.56
2019-05-12T08:45:27.948Z,1026.58
2019-05-12T08:46:24.422Z,1026.55
2019-05-12T08:47:23.834Z,1026.51
2019-05-12T08:48:25.065Z,1026.57
2019-05-12T08:49:23.490Z,1026.59
2019-05-12T08:50:31.281Z,1026.54
2019-05-12T08:51:24.911Z,1026.50
2019-05-12T08:52:23.565Z,1026.48
2019-05-12T08:53:23.544Z,1026.53
2019-05-12T08:54:23.264Z,1026.57
2019-05-12T08:55:31.161Z,1026.62
2019-05-12T08:56:26.109Z,1026.60
2019-05-12T08:57:24.179Z,1026.63
2019-05-12T08:58:31.538Z,1026.65
2019-05-12T08:59:26.664Z,1026.67
2019-05-12T09:00:23.762Z,1026.65
2019-05-12T09:01:26.516Z,1026.65
2019-05-12T09:02:24.027Z,1026.62
2019-05-12T09:03:27.120Z,1026.72
2019-05-12T09:04:24.724Z,1026.66
2019-05-12T09:05:28.021Z,1026.69
2019-05-12T09:06:23.748Z,1026.70
2019-05-12T09:07:24.257Z,1026.70
2019-05-12T09:08:24.287Z,1026.67
2019-05-12T09:09:23.275Z,1026.69
2019-05-12T09:10:23.500Z,1026.67
2019-05-12T09:11:24.227Z,1026.69
2019-05-12T09:12:23.321Z,1026.75
2019-05-12T09:13:23.424Z,1026.71
2019-05-12T09:14:23.902Z,1026.70
2019-05-12T09:15:23.960Z,1026.70
2019-05-12T09:16:24.376Z,1026.72
2019-05-12T09:17:23.268Z,1026.69
2019-05-12T09:18:28.413Z,1026.76
2019-05-12T09:19:24.850Z,1026.74
2019-05-12T09:20:24.227Z,1026.69
2019-05-12T09:21:30.992Z,1026.72
2019-05-12T09:22:24.133Z,1026.68
2019-05-12T09:23:23.991Z,1026.70
2019-05-12T09:24:26.934Z,1026.72
2019-05-12T09:25:23.876Z,1026.73
2019-05-12T09:26:26.747Z,1026.68
2019-05-12T09:27:24.142Z,1026.73
2019-05-12T09:28:23.994Z,1026.70
2019-05-12T09:29:22.676Z,1026.79
2019-05-12T09:30:23.907Z,1026.79
2019-05-12T09:31:25.616Z,1026.72
2019-05-12T09:32:25.211Z,1026.76
2019-05-12T09:33:27.640Z,1026.74
2019-05-12T09:34:23.498Z,1026.76
2019-05-12T09:35:23.594Z,1026.75
2019-05-12T09:36:24.347Z,1026.72
2019-05-12T09:37:24.067Z,1026.73
2019-05-12T09:38:24.125Z,1026.79
2019-05-12T09:39:23.460Z,1026.78
2019-05-12T09:40:24.728Z,1026.76
2019-05-12T09:41:24.054Z,1026.73
2019-05-12T09:42:25.714Z,1026.76
2019-05-12T09:43:23.925Z,1026.76
2019-05-12T09:44:26.436Z,1026.78
2019-05-12T09:45:24.226Z,1026.78
2019-05-12T09:46:23.281Z,1026.84
2019-05-12T09:47:27.396Z,1026.80
2019-05-12T09:48:24.544Z,1026.83
2019-05-12T09:49:30.820Z,1026.83
2019-05-12T09:50:23.348Z,1026.74
2019-05-12T09:51:23.851Z,1026.78
2019-05-12T09:52:26.993Z,1026.81
2019-05-12T09:53:23.749Z,1026.86
2019-05-12T09:54:27.847Z,1026.86
2019-05-12T09:55:24.761Z,1026.82
2019-05-12T09:56:23.925Z,1026.81
2019-05-12T09:57:23.879Z,1026.88
2019-05-12T09:58:23.652Z,1026.80
2019-05-12T09:59:25.619Z,1026.79
2019-05-12T10:00:23.959Z,1026.79
2019-05-12T10:01:24.215Z,1026.79
2019-05-12T10:02:23.779Z,1026.84
2019-05-12T10:03:24.226Z,1026.96
2019-05-12T10:04:22.539Z,1026.94
2019-05-12T10:05:22.539Z,1026.94
2019-05-12T10:06:24.437Z,1026.99
2019-05-12T10:07:22.552Z,1026.94
2019-05-12T10:08:24.227Z,1026.96
2019-05-12T10:09:24.415Z,1026.98
2019-05-12T10:10:24.271Z,1027.00
2019-05-12T10:11:23.697Z,1027.00
2019-05-12T10:12:22.513Z,1026.98
2019-05-12T10:13:28.082Z,1026.97
2019-05-12T10:14:23.520Z,1026.94
2019-05-12T10:15:24.764Z,1026.98
2019-05-12T10:16:24.065Z,1026.98
2019-05-12T10:17:28.423Z,1027.00
2019-05-12T10:18:24.405Z,1026.99
2019-05-12T10:19:23.559Z,1027.07
2019-05-12T10:20:24.173Z,1026.99
2019-05-12T10:21:23.789Z,1027.00
2019-05-12T10:22:23.535Z,1027.00
2019-05-12T10:23:26.673Z,1027.06
2019-05-12T10:24:22.472Z,1027.02
2019-05-12T10:25:23.308Z,1027.05
2019-05-12T10:26:22.469Z,1027.05
2019-05-12T10:27:30.137Z,1027.07
2019-05-12T10:28:23.804Z,1027.08
2019-05-12T10:29:24.357Z,1027.15
2019-05-12T10:30:23.468Z,1027.07
2019-05-12T10:31:24.269Z,1027.07
2019-05-12T10:32:24.026Z,1027.09
2019-05-12T10:33:23.249Z,1027.04
2019-05-12T10:34:24.066Z,1027.06
2019-05-12T10:35:26.247Z,1027.04
2019-05-12T10:36:22.423Z,1027.08
2019-05-12T10:37:25.290Z,1027.08
2019-05-12T10:38:24.185Z,1027.11
2019-05-12T10:39:24.335Z,1027.09
2019-05-12T10:40:23.381Z,1027.05
2019-05-12T10:41:23.693Z,1027.01
2019-05-12T10:42:24.345Z,1027.08
2019-05-12T10:43:23.646Z,1027.08
2019-05-12T10:44:22.390Z,1027.07
2019-05-12T10:45:23.447Z,1027.06
2019-05-12T10:46:26.796Z,1027.06
2019-05-12T10:47:23.900Z,1027.08
2019-05-12T10:48:23.372Z,1027.10
2019-05-12T10:49:24.872Z,1027.09
2019-05-12T10:50:23.463Z,1027.09
2019-05-12T10:51:23.912Z,1027.11
2019-05-12T10:52:24.299Z,1027.07
2019-05-12T10:53:23.486Z,1027.01
2019-05-12T10:54:24.248Z,1027.00
2019-05-12T10:55:23.919Z,1027.03
2019-05-12T10:56:24.120Z,1026.99
2019-05-12T10:57:22.354Z,1027.01
2019-05-12T10:58:24.889Z,1027.10
2019-05-12T10:59:32.433Z,1027.06
2019-05-12T11:00:25.046Z,1027.11
2019-05-12T11:01:24.355Z,1027.06
2019-05-12T11:02:26.610Z,1027.09
2019-05-12T11:03:24.392Z,1027.05
2019-05-12T11:04:35.209Z,1027.05
2019-05-12T11:05:25.880Z,1027.02
2019-05-12T11:06:24.360Z,1027.04
2019-05-12T11:07:23.019Z,1026.99
2019-05-12T11:08:24.520Z,1026.97
2019-05-12T11:09:29.451Z,1027.01
2019-05-12T11:10:23.334Z,1027.00
2019-05-12T11:11:24.008Z,1027.04
2019-05-12T11:12:25.287Z,1026.99
2019-05-12T11:13:23.357Z,1027.05
2019-05-12T11:14:26.327Z,1026.99
2019-05-12T11:15:24.544Z,1027.02
2019-05-12T11:16:30.626Z,1027.07
2019-05-12T11:17:24.417Z,1027.09
2019-05-12T11:18:26.067Z,1027.06
2019-05-12T11:19:22.256Z,1026.96
2019-05-12T11:20:24.865Z,1027.04
2019-05-12T11:21:22.248Z,1027.02
2019-05-12T11:22:22.242Z,1026.99
2019-05-12T11:23:24.350Z,1026.98
2019-05-12T11:24:22.239Z,1027.00
2019-05-12T11:25:24.104Z,1027.00
2019-05-12T11:26:23.488Z,1026.98
2019-05-12T11:27:24.043Z,1027.01
2019-05-12T11:28:24.281Z,1026.99
2019-05-12T11:29:23.536Z,1027.04
2019-05-12T11:30:23.799Z,1027.10
2019-05-12T11:31:24.231Z,1027.11
2019-05-12T11:32:23.251Z,1027.11
2019-05-12T11:33:23.793Z,1027.07
2019-05-12T11:34:22.195Z,1027.10
2019-05-12T11:35:23.672Z,1027.12
2019-05-12T11:36:24.081Z,1027.10
2019-05-12T11:37:23.119Z,1027.09
2019-05-12T11:38:24.233Z,1027.13
2019-05-12T11:39:23.622Z,1027.13
2019-05-12T11:40:23.855Z,1027.06
2019-05-12T11:41:28.063Z,1027.05
2019-05-12T11:42:23.912Z,1027.11
2019-05-12T11:43:24.611Z,1027.09
2019-05-12T11:44:23.268Z,1027.04
2019-05-12T11:45:24.054Z,1027.10
2019-05-12T11:46:23.788Z,1027.07
2019-05-12T11:47:24.110Z,1027.11
2019-05-12T11:48:23.633Z,1027.11
2019-05-12T11:49:26.268Z,1027.04
2019-05-12T11:50:22.130Z,1027.12
2019-05-12T11:51:28.966Z,1027.06
2019-05-12T11:52:23.924Z,1027.08
2019-05-12T11:53:30.437Z,1027.10
2019-05-12T11:54:24.270Z,1027.06
2019-05-12T11:55:29.876Z,1027.14
2019-05-12T11:56:24.141Z,1027.15
2019-05-12T11:57:28.191Z,1027.09
2019-05-12T11:58:23.458Z,1027.16
2019-05-12T11:59:23.756Z,1027.24
2019-05-12T12:00:24.067Z,1027.12
2019-05-12T12:01:24.289Z,1027.10
2019-05-12T12:02:26.236Z,1027.14
2019-05-12T12:03:23.389Z,1027.10
2019-05-12T12:04:23.574Z,1027.19
2019-05-12T12:05:23.506Z,1027.18